createdAt,value
2023-04-18T00:01:16.056Z,99312.28
2023-04-18T00:03:42.358Z,99313.94
2023-04-18T00:06:08.680Z,99320.31
2023-04-18T00:08:34.772Z,99320.31
2023-04-18T00:11:00.857Z,99315.78
2023-04-18T00:13:26.959Z,99309.63
2023-04-18T00:15:53.065Z,99312.28
2023-04-18T00:18:19.168Z,99307.94
2023-04-18T00:20:45.803Z,99302.59
2023-04-18T00:23:13.333Z,99310.59
2023-04-18T00:25:39.638Z,99314.09
2023-04-18T00:28:05.758Z,99305.25
2023-04-18T00:30:31.867Z,99313.28
2023-04-18T00:32:58.011Z,99301.78
2023-04-18T00:35:24.146Z,99313.44
2023-04-18T00:37:50.253Z,99303.63
2023-04-18T00:40:16.350Z,99304.59
2023-04-18T00:42:42.577Z,99312.63
2023-04-18T00:45:08.672Z,99308.97
2023-04-18T00:47:34.870Z,99311.63
2023-04-18T00:50:01.050Z,99302.75
2023-04-18T00:52:27.240Z,99307.28
2023-04-18T00:54:53.372Z,99304.81
2023-04-18T00:57:19.480Z,99297.63
2023-04-18T00:59:45.576Z,99306.47
2023-04-18T01:02:11.688Z,99292.44
2023-04-18T01:04:37.872Z,99290.59
2023-04-18T01:07:04.025Z,99292.44
2023-04-18T01:09:30.195Z,99302.97
2023-04-18T01:11:56.335Z,99303.97
2023-04-18T01:14:22.433Z,99308.31
2023-04-18T01:16:48.541Z,99300.47
2023-04-18T01:19:14.654Z,99294.28
2023-04-18T01:21:40.743Z,99291.63
2023-04-18T01:24:06.854Z,99296.97
2023-04-18T01:26:33.020Z,99298.81
2023-04-18T01:28:59.102Z,99289.97
2023-04-18T01:31:25.240Z,99294.28
2023-04-18T01:33:51.361Z,99289.13
2023-04-18T01:36:17.476Z,99289.13
2023-04-18T01:38:43.563Z,99286.44
2023-04-18T01:41:09.680Z,99283.78
2023-04-18T01:43:35.795Z,99286.66
2023-04-18T01:46:01.879Z,99288.31
2023-04-18T01:48:27.996Z,99287.47
2023-04-18T01:50:54.074Z,99290.97
2023-04-18T01:53:20.158Z,99282.94
2023-04-18T01:55:46.259Z,99290.97
2023-04-18T01:58:12.354Z,99280.47
2023-04-18T02:00:38.512Z,99288.31
2023-04-18T02:03:04.819Z,99283.97
2023-04-18T02:05:31.122Z,99276.78
2023-04-18T02:07:57.201Z,99286.66
2023-04-18T02:10:23.312Z,99276.97
2023-04-18T02:12:49.407Z,99277.81
2023-04-18T02:15:15.503Z,99281.31
2023-04-18T02:17:41.813Z,99286.00
2023-04-18T02:20:08.206Z,99278.81
2023-04-18T02:22:34.346Z,99275.13
2023-04-18T02:25:00.454Z,99284.81
2023-04-18T02:27:26.558Z,99276.97
2023-04-18T02:29:52.655Z,99276.13
2023-04-18T02:32:18.788Z,99276.13
2023-04-18T02:34:44.947Z,99272.63
2023-04-18T02:37:11.035Z,99277.97
2023-04-18T02:39:37.163Z,99276.97
2023-04-18T02:42:03.247Z,99278.16
2023-04-18T02:44:29.335Z,99277.97
2023-04-18T02:46:55.500Z,99278.97
2023-04-18T02:49:21.598Z,99276.31
2023-04-18T02:51:47.723Z,99277.16
2023-04-18T02:54:14.072Z,99273.63
2023-04-18T02:56:40.355Z,99278.97
2023-04-18T02:59:06.474Z,99274.63
2023-04-18T03:01:32.639Z,99278.16
2023-04-18T03:03:58.747Z,99288.84
2023-04-18T03:06:24.889Z,99281.81
2023-04-18T03:08:51.026Z,99287.16
2023-04-18T03:11:17.136Z,99293.34
2023-04-18T03:13:43.226Z,99295.19
2023-04-18T03:16:09.374Z,99284.50
2023-04-18T03:18:35.510Z,99281.81
2023-04-18T03:21:01.618Z,99283.66
2023-04-18T03:23:27.760Z,99285.50
2023-04-18T03:25:53.863Z,99289.00
2023-04-18T03:28:19.979Z,99293.50
2023-04-18T03:30:46.139Z,99294.34
2023-04-18T03:33:12.218Z,99294.53
2023-04-18T03:35:38.297Z,99291.03
2023-04-18T03:38:04.412Z,99289.19
2023-04-18T03:40:30.500Z,99289.19
2023-04-18T03:42:56.599Z,99292.69
2023-04-18T03:45:22.722Z,99290.00
2023-04-18T03:47:48.867Z,99294.53
2023-04-18T03:50:14.980Z,99295.56
2023-04-18T03:52:41.085Z,99299.03
2023-04-18T03:55:07.171Z,99299.03
2023-04-18T03:57:33.266Z,99308.72
2023-04-18T03:59:59.876Z,99302.53
2023-04-18T04:02:26.139Z,99306.25
2023-04-18T04:04:52.419Z,99303.56
2023-04-18T04:07:18.556Z,99310.72
2023-04-18T04:09:44.653Z,99312.56
2023-04-18T04:12:10.741Z,99308.06
2023-04-18T04:14:36.913Z,99309.09
2023-04-18T04:17:03.026Z,99307.22
2023-04-18T04:19:29.141Z,99313.59
2023-04-18T04:21:55.250Z,99305.59
2023-04-18T04:24:21.337Z,99310.94
2023-04-18T04:26:47.428Z,99316.28
2023-04-18T04:29:13.588Z,99326.97
2023-04-18T04:31:39.758Z,99312.75
2023-04-18T04:34:05.889Z,99321.63
2023-04-18T04:36:32.091Z,99317.28
2023-04-18T04:38:58.176Z,99325.28
2023-04-18T04:41:24.271Z,99324.47
2023-04-18T04:43:50.429Z,99327.13
2023-04-18T04:46:16.533Z,99322.81
2023-04-18T04:48:42.640Z,99328.16
2023-04-18T04:51:09.284Z,99323.63
2023-04-18T04:53:35.378Z,99328.97
2023-04-18T04:56:01.489Z,99322.81
2023-04-18T04:58:27.649Z,99324.63
2023-04-18T05:00:54.002Z,99328.16
2023-04-18T05:03:20.372Z,99329.97
2023-04-18T05:05:46.933Z,99332.66
2023-04-18T05:08:13.058Z,99332.66
2023-04-18T05:10:39.157Z,99340.66
2023-04-18T05:13:05.264Z,99334.50
2023-04-18T05:15:31.387Z,99334.69
2023-04-18T05:17:57.527Z,99332.84
2023-04-18T05:20:23.667Z,99335.50
2023-04-18T05:22:49.805Z,99342.72
2023-04-18T05:25:15.927Z,99341.84
2023-04-18T05:27:42.059Z,99347.19
2023-04-18T05:30:08.153Z,99349.88
2023-04-18T05:32:34.277Z,99347.19
2023-04-18T05:35:00.431Z,99353.41
2023-04-18T05:37:26.540Z,99352.75
2023-04-18T05:39:52.637Z,99356.22
2023-04-18T05:42:18.757Z,99361.56
2023-04-18T05:44:44.848Z,99366.09
2023-04-18T05:47:10.936Z,99362.56
2023-04-18T05:49:37.043Z,99362.56
2023-04-18T05:52:03.536Z,99367.09
2023-04-18T05:54:29.632Z,99374.13
2023-04-18T05:56:55.779Z,99375.94
2023-04-18T05:59:21.893Z,99362.56
2023-04-18T06:01:47.993Z,99367.09
2023-04-18T06:04:14.486Z,99366.25
2023-04-18T06:06:41.049Z,99367.09
2023-04-18T06:09:07.137Z,99376.13
2023-04-18T06:11:33.240Z,99373.63
2023-04-18T06:13:59.331Z,99379.63
2023-04-18T06:16:25.445Z,99370.94
2023-04-18T06:18:51.595Z,99373.44
2023-04-18T06:21:17.725Z,99373.44
2023-04-18T06:23:43.823Z,99374.44
2023-04-18T06:26:09.956Z,99376.28
2023-04-18T06:28:36.056Z,99371.97
2023-04-18T06:31:02.181Z,99377.31
2023-04-18T06:33:28.298Z,99386.16
2023-04-18T06:35:54.400Z,99386.97
2023-04-18T06:38:20.495Z,99378.31
2023-04-18T06:40:46.659Z,99386.31
2023-04-18T06:43:12.759Z,99388.00
2023-04-18T06:45:38.988Z,99386.31
2023-04-18T06:48:05.176Z,99387.34
2023-04-18T06:50:31.306Z,99386.53
2023-04-18T06:52:57.396Z,99392.69
2023-04-18T06:55:23.501Z,99393.69
2023-04-18T06:57:49.608Z,99393.69
2023-04-18T07:00:17.259Z,99397.22
2023-04-18T07:02:43.572Z,99393.88
2023-04-18T07:05:09.781Z,99398.41
2023-04-18T07:07:35.860Z,99400.88
2023-04-18T07:10:01.977Z,99402.72
2023-04-18T07:12:28.095Z,99396.53
2023-04-18T07:14:54.200Z,99403.53
2023-04-18T07:17:20.358Z,99403.53
2023-04-18T07:19:46.502Z,99402.72
2023-04-18T07:22:12.629Z,99390.38
2023-04-18T07:24:38.755Z,99401.06
2023-04-18T07:27:04.859Z,99417.09
2023-04-18T07:29:30.946Z,99410.06
2023-04-18T07:31:57.050Z,99405.75
2023-04-18T07:34:23.128Z,99407.41
2023-04-18T07:36:49.231Z,99414.59
2023-04-18T07:39:15.334Z,99415.41
2023-04-18T07:41:41.445Z,99415.41
2023-04-18T07:44:07.645Z,99412.09
2023-04-18T07:46:33.948Z,99419.09
2023-04-18T07:49:00.170Z,99412.75
2023-04-18T07:51:26.255Z,99414.59
2023-04-18T07:53:52.350Z,99418.28
2023-04-18T07:56:18.426Z,99420.09
2023-04-18T07:58:44.533Z,99416.44
2023-04-18T08:01:10.655Z,99415.78
2023-04-18T08:03:36.861Z,99421.94
2023-04-18T08:06:03.190Z,99421.13
2023-04-18T08:08:29.291Z,99422.78
2023-04-18T08:10:55.387Z,99424.81
2023-04-18T08:13:21.500Z,99431.81
2023-04-18T08:15:47.707Z,99431.81
2023-04-18T08:18:13.840Z,99431.97
2023-04-18T08:20:39.935Z,99430.16
2023-04-18T08:23:09.466Z,99430.97
2023-04-18T08:25:36.755Z,99440.84
2023-04-18T08:28:02.955Z,99435.50
2023-04-18T08:30:29.090Z,99438.16
2023-04-18T08:32:55.248Z,99433.81
2023-04-18T08:35:21.426Z,99431.13
2023-04-18T08:37:47.549Z,99432.16
2023-04-18T08:40:13.665Z,99432.16
2023-04-18T08:42:39.779Z,99442.84
2023-04-18T08:45:05.898Z,99445.53
2023-04-18T08:47:32.029Z,99445.53
2023-04-18T08:49:58.147Z,99440.19
2023-04-18T08:52:24.271Z,99443.00
2023-04-18T08:54:50.364Z,99441.16
2023-04-18T08:57:16.479Z,99453.53
2023-04-18T08:59:43.794Z,99443.84
2023-04-18T09:02:10.577Z,99454.34
2023-04-18T09:04:36.777Z,99446.50
2023-04-18T09:07:03.536Z,99448.34
2023-04-18T09:09:29.619Z,99458.00
2023-04-18T09:11:55.731Z,99452.88
2023-04-18T09:14:21.861Z,99459.03
2023-04-18T09:16:47.976Z,99451.84
2023-04-18T09:19:14.446Z,99455.53
2023-04-18T09:21:40.912Z,99458.22
2023-04-18T09:24:07.027Z,99447.53
2023-04-18T09:26:33.112Z,99452.88
2023-04-18T09:28:59.227Z,99460.88
2023-04-18T09:31:25.436Z,99450.38
2023-04-18T09:33:51.603Z,99451.19
2023-04-18T09:36:17.727Z,99450.38
2023-04-18T09:38:43.842Z,99448.53
2023-04-18T09:41:09.977Z,99453.84
2023-04-18T09:43:36.183Z,99448.53
2023-04-18T09:46:02.372Z,99452.03
2023-04-18T09:48:28.485Z,99458.38
2023-04-18T09:50:55.193Z,99461.03
2023-04-18T09:53:21.332Z,99446.88
2023-04-18T09:55:47.456Z,99446.03
2023-04-18T09:58:13.585Z,99438.84
2023-04-18T10:00:39.698Z,99436.19
2023-04-18T10:03:05.915Z,99437.22
2023-04-18T10:05:32.262Z,99439.88
2023-04-18T10:07:58.428Z,99442.56
2023-04-18T10:10:24.546Z,99447.91
2023-04-18T10:12:50.721Z,99438.03
2023-04-18T10:15:16.908Z,99435.38
2023-04-18T10:17:55.988Z,99436.19
2023-04-18T10:20:29.078Z,99434.53
2023-04-18T10:22:55.183Z,99435.38
2023-04-18T10:25:21.283Z,99428.19
2023-04-18T10:27:47.403Z,99430.03
2023-04-18T10:30:13.512Z,99431.88
2023-04-18T10:32:39.658Z,99427.34
2023-04-18T10:35:05.847Z,99423.84
2023-04-18T10:37:32.014Z,99422.19
2023-04-18T10:39:58.113Z,99426.53
2023-04-18T10:42:24.228Z,99420.31
2023-04-18T10:44:50.371Z,99424.84
2023-04-18T10:47:16.530Z,99414.16
2023-04-18T10:49:42.664Z,99415.00
2023-04-18T10:52:08.777Z,99414.16
2023-04-18T10:54:34.898Z,99413.34
2023-04-18T10:57:01.108Z,99412.50
2023-04-18T10:59:27.204Z,99410.66
2023-04-18T11:01:53.332Z,99403.66
2023-04-18T11:04:19.704Z,99412.50
2023-04-18T11:06:46.215Z,99409.84
2023-04-18T11:09:12.325Z,99415.19
2023-04-18T11:11:38.729Z,99415.19
2023-04-18T11:14:04.906Z,99409.00
2023-04-18T11:16:31.044Z,99416.16
2023-04-18T11:18:57.277Z,99411.66
2023-04-18T11:21:23.369Z,99410.00
2023-04-18T11:23:49.486Z,99410.00
2023-04-18T11:26:15.600Z,99406.50
2023-04-18T11:28:41.717Z,99409.00
2023-04-18T11:31:07.823Z,99410.84
2023-04-18T11:33:33.965Z,99402.00
2023-04-18T11:36:00.108Z,99399.31
2023-04-18T11:38:26.236Z,99403.66
2023-04-18T11:40:52.398Z,99397.47
2023-04-18T11:43:18.521Z,99388.81
2023-04-18T11:45:44.645Z,99401.16
2023-04-18T11:48:10.777Z,99396.66
2023-04-18T11:50:36.869Z,99408.16
2023-04-18T11:53:02.959Z,99402.00
2023-04-18T11:55:29.082Z,99405.50
2023-04-18T11:57:55.204Z,99404.66
2023-04-18T12:00:21.323Z,99409.00
2023-04-18T12:02:47.590Z,99400.16
2023-04-18T12:05:13.916Z,99398.31
2023-04-18T12:07:40.252Z,99399.31
2023-04-18T12:10:06.386Z,99403.66
2023-04-18T12:12:32.481Z,99409.19
2023-04-18T12:14:58.579Z,99412.69
2023-04-18T12:17:24.942Z,99410.84
2023-04-18T12:19:51.049Z,99409.00
2023-04-18T12:22:17.151Z,99406.50
2023-04-18T12:24:43.409Z,99404.66
2023-04-18T12:27:09.561Z,99399.31
2023-04-18T12:29:35.679Z,99392.97
2023-04-18T12:32:01.921Z,99399.16
2023-04-18T12:34:28.050Z,99404.66
2023-04-18T12:36:54.135Z,99400.16
2023-04-18T12:39:20.261Z,99394.81
2023-04-18T12:41:48.210Z,99390.28
2023-04-18T12:44:15.850Z,99390.50
2023-04-18T12:46:42.113Z,99394.81
2023-04-18T12:49:08.214Z,99397.47
2023-04-18T12:51:34.319Z,99387.63
2023-04-18T12:54:00.454Z,99397.47
2023-04-18T12:56:26.605Z,99391.31
2023-04-18T12:58:52.697Z,99392.13
2023-04-18T13:01:18.906Z,99392.13
2023-04-18T13:03:48.579Z,99391.16
2023-04-18T13:06:19.753Z,99387.63
2023-04-18T13:08:45.855Z,99386.78
2023-04-18T13:11:11.972Z,99390.28
2023-04-18T13:13:38.103Z,99396.28
2023-04-18T13:16:04.279Z,99390.13
2023-04-18T13:18:30.410Z,99384.94
2023-04-18T13:20:56.545Z,99383.97
2023-04-18T13:23:22.645Z,99390.94
2023-04-18T13:25:48.745Z,99384.78
2023-04-18T13:28:14.875Z,99401.63
2023-04-18T13:30:40.983Z,99392.63
2023-04-18T13:33:07.110Z,99386.47
2023-04-18T13:35:33.287Z,99387.47
2023-04-18T13:37:59.391Z,99389.97
2023-04-18T13:40:25.505Z,99391.81
2023-04-18T13:42:51.603Z,99387.28
2023-04-18T13:45:17.709Z,99379.28
2023-04-18T13:47:43.839Z,99383.59
2023-04-18T13:50:10.067Z,99389.13
2023-04-18T13:52:36.195Z,99381.13
2023-04-18T13:55:02.337Z,99385.44
2023-04-18T13:57:28.510Z,99382.78
2023-04-18T13:59:54.629Z,99392.44
2023-04-18T14:02:20.869Z,99387.09
2023-04-18T14:04:47.657Z,99388.13
2023-04-18T14:07:13.816Z,99387.28
2023-04-18T14:09:39.930Z,99379.09
2023-04-18T14:12:06.057Z,99379.09
2023-04-18T14:14:32.167Z,99380.75
2023-04-18T14:16:58.270Z,99373.75
2023-04-18T14:19:24.395Z,99375.41
2023-04-18T14:21:50.511Z,99367.41
2023-04-18T14:24:16.647Z,99363.06
2023-04-18T14:26:42.803Z,99364.75
2023-04-18T14:29:08.895Z,99362.88
2023-04-18T14:31:35.063Z,99363.91
2023-04-18T14:34:01.280Z,99376.25
2023-04-18T14:36:27.381Z,99369.88
2023-04-18T14:38:53.478Z,99369.06
2023-04-18T14:41:19.616Z,99373.56
2023-04-18T14:43:45.715Z,99367.22
2023-04-18T14:46:11.894Z,99360.22
2023-04-18T14:48:38.318Z,99358.38
2023-04-18T14:51:04.423Z,99358.38
2023-04-18T14:53:30.570Z,99364.53
2023-04-18T14:55:56.687Z,99362.72
2023-04-18T14:58:22.803Z,99358.22
2023-04-18T15:00:48.906Z,99355.53
2023-04-18T15:03:15.182Z,99352.03
2023-04-18T15:05:43.071Z,99349.38
2023-04-18T15:08:09.167Z,99347.53
2023-04-18T15:10:35.285Z,99358.22
2023-04-18T15:13:01.371Z,99353.69
2023-04-18T15:15:27.464Z,99353.69
2023-04-18T15:17:53.646Z,99346.69
2023-04-18T15:20:21.271Z,99348.34
2023-04-18T15:22:48.572Z,99352.88
2023-04-18T15:25:14.701Z,99348.34
2023-04-18T15:27:40.789Z,99352.69
2023-04-18T15:30:06.888Z,99353.69
2023-04-18T15:32:33.057Z,99356.34
2023-04-18T15:34:59.188Z,99352.69
2023-04-18T15:37:25.299Z,99359.84
2023-04-18T15:39:51.419Z,99357.19
2023-04-18T15:42:17.568Z,99352.69
2023-04-18T15:44:43.762Z,99360.72
2023-04-18T15:47:09.900Z,99355.38
2023-04-18T15:49:35.993Z,99361.53
2023-04-18T15:52:02.073Z,99357.00
2023-04-18T15:54:28.182Z,99361.53
2023-04-18T15:56:54.304Z,99348.19
2023-04-18T15:59:20.393Z,99350.03
2023-04-18T16:01:46.565Z,99346.34
2023-04-18T16:04:12.940Z,99348.19
2023-04-18T16:06:39.298Z,99349.00
2023-04-18T16:09:05.402Z,99349.81
2023-04-18T16:11:31.502Z,99352.50
2023-04-18T16:13:57.583Z,99349.00
2023-04-18T16:16:23.862Z,99353.31
2023-04-18T16:18:50.079Z,99347.16
2023-04-18T16:21:16.183Z,99355.00
2023-04-18T16:23:42.836Z,99347.81
2023-04-18T16:26:08.939Z,99349.66
2023-04-18T16:28:35.040Z,99349.66
2023-04-18T16:31:01.221Z,99357.66
2023-04-18T16:33:27.462Z,99364.66
2023-04-18T16:35:53.659Z,99364.66
2023-04-18T16:38:19.782Z,99365.50
2023-04-18T16:40:45.889Z,99359.31
2023-04-18T16:43:11.988Z,99362.81
2023-04-18T16:45:38.108Z,99358.31
2023-04-18T16:48:04.231Z,99369.00
2023-04-18T16:50:30.378Z,99369.00
2023-04-18T16:52:56.508Z,99370.66
2023-04-18T16:55:22.598Z,99371.69
2023-04-18T16:57:48.707Z,99369.84
2023-04-18T17:00:14.840Z,99374.34
2023-04-18T17:02:41.017Z,99379.50
2023-04-18T17:05:07.203Z,99383.19
2023-04-18T17:07:33.327Z,99384.00
2023-04-18T17:09:59.440Z,99378.69
2023-04-18T17:12:25.528Z,99379.50
2023-04-18T17:14:51.653Z,99382.00
2023-04-18T17:17:17.750Z,99383.84
2023-04-18T17:19:43.852Z,99378.50
2023-04-18T17:22:09.962Z,99380.31
2023-04-18T17:24:36.053Z,99374.00
2023-04-18T17:27:02.163Z,99379.34
2023-04-18T17:29:28.291Z,99384.69
2023-04-18T17:31:54.407Z,99374.00
2023-04-18T17:34:20.525Z,99370.50
2023-04-18T17:36:46.652Z,99371.31
2023-04-18T17:39:12.847Z,99374.00
2023-04-18T17:41:39.086Z,99378.31
2023-04-18T17:44:05.204Z,99382.00
2023-04-18T17:46:31.442Z,99384.69
2023-04-18T17:48:57.683Z,99387.34
2023-04-18T17:51:23.816Z,99390.00
2023-04-18T17:53:49.907Z,99396.19
2023-04-18T17:56:16.006Z,99397.00
2023-04-18T17:58:42.107Z,99396.19
2023-04-18T18:01:08.308Z,99398.03
2023-04-18T18:03:34.673Z,99408.72
2023-04-18T18:06:00.980Z,99406.03
2023-04-18T18:08:27.079Z,99403.22
2023-04-18T18:10:53.163Z,99397.88
2023-04-18T18:13:19.311Z,99410.38
2023-04-18T18:15:45.416Z,99410.19
2023-04-18T18:18:11.549Z,99406.69
2023-04-18T18:20:38.075Z,99415.72
2023-04-18T18:23:04.167Z,99420.06
2023-04-18T18:25:30.273Z,99404.84
2023-04-18T18:27:56.983Z,99415.38
2023-04-18T18:30:23.090Z,99420.34
2023-04-18T18:32:49.219Z,99424.88
2023-04-18T18:35:15.351Z,99423.03
2023-04-18T18:37:41.453Z,99430.22
2023-04-18T18:40:07.555Z,99427.53
2023-04-18T18:42:33.686Z,99428.53
2023-04-18T18:44:59.783Z,99433.06
2023-04-18T18:47:25.926Z,99438.22
2023-04-18T18:49:52.061Z,99441.72
2023-04-18T18:52:18.145Z,99442.72
2023-04-18T18:54:44.240Z,99444.56
2023-04-18T18:57:10.359Z,99451.59
2023-04-18T18:59:36.447Z,99450.72
2023-04-18T19:02:02.715Z,99441.88
2023-04-18T19:04:29.047Z,99452.56
2023-04-18T19:06:55.205Z,99448.06
2023-04-18T19:09:21.290Z,99450.72
2023-04-18T19:11:47.398Z,99451.75
2023-04-18T19:14:13.498Z,99457.75
2023-04-18T19:16:39.682Z,99456.06
2023-04-18T19:19:05.883Z,99458.59
2023-04-18T19:21:31.984Z,99461.25
2023-04-18T19:23:58.089Z,99463.09
2023-04-18T19:26:24.277Z,99462.28
2023-04-18T19:28:50.380Z,99462.28
2023-04-18T19:31:16.495Z,99466.75
2023-04-18T19:33:42.636Z,99467.63
2023-04-18T19:36:08.728Z,99470.28
2023-04-18T19:38:34.840Z,99469.44
2023-04-18T19:41:00.960Z,99469.44
2023-04-18T19:43:27.062Z,99472.09
2023-04-18T19:45:55.103Z,99460.59
2023-04-18T19:48:21.505Z,99460.59
2023-04-18T19:50:47.619Z,99466.75
2023-04-18T19:53:13.721Z,99472.31
2023-04-18T19:55:39.845Z,99461.63
2023-04-18T19:58:05.970Z,99465.94
2023-04-18T20:00:32.058Z,99462.44
2023-04-18T20:02:58.341Z,99467.78
2023-04-18T20:05:24.791Z,99468.59
2023-04-18T20:07:50.963Z,99462.59
2023-04-18T20:10:17.061Z,99477.81
2023-04-18T20:12:43.146Z,99477.63
2023-04-18T20:15:09.231Z,99477.63
2023-04-18T20:17:35.378Z,99478.47
2023-04-18T20:20:01.572Z,99480.13
2023-04-18T20:22:27.695Z,99472.31
2023-04-18T20:24:53.797Z,99480.31
2023-04-18T20:27:19.892Z,99476.63
2023-04-18T20:29:45.988Z,99479.28
2023-04-18T20:32:13.226Z,99477.63
2023-04-18T20:34:39.317Z,99476.63
2023-04-18T20:37:05.404Z,99475.97
2023-04-18T20:39:31.521Z,99483.00
2023-04-18T20:41:57.888Z,99478.63
2023-04-18T20:44:24.031Z,99477.81
2023-04-18T20:46:50.142Z,99487.50
2023-04-18T20:49:16.384Z,99475.97
2023-04-18T20:51:42.646Z,99488.50
2023-04-18T20:54:08.791Z,99479.66
2023-04-18T20:56:34.905Z,99491.16
2023-04-18T20:59:00.990Z,99483.16
2023-04-18T21:01:27.153Z,99479.66
2023-04-18T21:03:53.462Z,99486.66
2023-04-18T21:06:19.722Z,99482.31
2023-04-18T21:08:45.843Z,99482.50
2023-04-18T21:11:11.931Z,99487.66
2023-04-18T21:13:38.032Z,99486.84
2023-04-18T21:16:04.204Z,99486.84
2023-04-18T21:18:30.304Z,99489.50
2023-04-18T21:20:56.417Z,99486.03
2023-04-18T21:23:22.527Z,99496.50
2023-04-18T21:25:48.616Z,99501.03
2023-04-18T21:28:14.714Z,99492.19
2023-04-18T21:30:40.869Z,99490.34
2023-04-18T21:33:06.977Z,99498.34
2023-04-18T21:35:33.085Z,99489.50
2023-04-18T21:38:00.157Z,99496.69
2023-04-18T21:40:26.250Z,99492.34
2023-04-18T21:42:52.337Z,99491.53
2023-04-18T21:45:18.443Z,99491.38
2023-04-18T21:47:44.592Z,99487.00
2023-04-18T21:50:10.725Z,99489.50
2023-04-18T21:52:36.840Z,99494.84
2023-04-18T21:55:02.936Z,99494.03
2023-04-18T21:57:29.027Z,99495.84
2023-04-18T21:59:55.141Z,99487.84
2023-04-18T22:02:21.342Z,99487.00
2023-04-18T22:04:47.497Z,99487.84
2023-04-18T22:07:13.667Z,99489.69
2023-04-18T22:09:39.806Z,99500.38
2023-04-18T22:12:05.968Z,99491.53
2023-04-18T22:14:32.086Z,99487.16
2023-04-18T22:16:58.331Z,99488.03
2023-04-18T22:19:24.505Z,99480.84
2023-04-18T22:21:50.623Z,99489.84
2023-04-18T22:24:16.888Z,99487.16
2023-04-18T22:26:43.140Z,99488.84
2023-04-18T22:29:09.260Z,99484.50
2023-04-18T22:31:35.354Z,99483.50
2023-04-18T22:34:01.526Z,99486.19
2023-04-18T22:36:28.056Z,99486.19
2023-04-18T22:38:54.168Z,99484.34
2023-04-18T22:41:20.259Z,99486.19
2023-04-18T22:43:46.361Z,99486.19
2023-04-18T22:46:12.541Z,99477.34
2023-04-18T22:48:38.720Z,99486.19
2023-04-18T22:51:04.821Z,99486.19
2023-04-18T22:53:30.910Z,99494.19
2023-04-18T22:55:57.004Z,99489.84
2023-04-18T22:58:23.125Z,99488.84
2023-04-18T23:00:49.268Z,99491.53
2023-04-18T23:03:15.536Z,99502.22
2023-04-18T23:05:41.746Z,99488.84
2023-04-18T23:08:07.851Z,99490.69
2023-04-18T23:10:34.027Z,99489.84
2023-04-18T23:13:00.169Z,99486.19
2023-04-18T23:15:26.299Z,99486.19
2023-04-18T23:17:52.437Z,99483.50
2023-04-18T23:20:18.591Z,99477.34
2023-04-18T23:22:44.692Z,99479.16
2023-04-18T23:25:10.813Z,99480.00
2023-04-18T23:27:36.939Z,99480.84
2023-04-18T23:30:03.035Z,99483.50
2023-04-18T23:32:29.175Z,99480.84
2023-04-18T23:34:55.334Z,99480.00
2023-04-18T23:37:21.434Z,99488.84
2023-04-18T23:39:47.541Z,99481.00
2023-04-18T23:42:13.668Z,99481.84
2023-04-18T23:44:39.783Z,99479.16
2023-04-18T23:47:05.946Z,99480.19
2023-04-18T23:49:32.086Z,99479.16
2023-04-18T23:51:58.199Z,99482.03
2023-04-18T23:54:24.297Z,99478.34
2023-04-18T23:56:50.422Z,99474.84
2023-04-18T23:59:16.536Z,99473.00
